Time;durP1;ratioP1;P1;durP2;ratioP2;P2;SDS_P1;SDS_P2;PMS_P1;PMS_P2;Temp;Humidity;BMP_temperature;BMP_pressure;BME280_temperature;BME280_humidity;BME280_pressure;Samples;Min_cycle;Max_cycle;Signal;HPM_P1;HPM_P2
2022/12/16 00:00:30;;;;;;;14.75;12.90;;;;;;;2.70;100.00;94209.59;5056200;28;20029;-70
2022/12/16 00:02:58;;;;;;;18.63;13.20;;;;;;;2.69;100.00;94222.69;5064123;28;20032;-60
2022/12/16 00:05:23;;;;;;;12.40;11.07;;;;;;;2.70;100.00;94224.34;5067041;28;20042;-60
2022/12/16 00:07:48;;;;;;;11.35;10.15;;;;;;;2.70;100.00;94219.97;5063106;28;20099;-60
2022/12/16 00:10:14;;;;;;;10.60;9.45;;;;;;;2.68;100.00;94231.44;5068695;28;20040;-59
2022/12/16 00:12:39;;;;;;;7.72;6.97;;;;;;;2.68;100.00;94223.66;5066638;28;20028;-60
2022/12/16 00:15:05;;;;;;;9.65;8.80;;;;;;;2.67;100.00;94227.19;5062460;28;20446;-60
2022/12/16 00:17:30;;;;;;;11.20;9.48;;;;;;;2.69;100.00;94230.50;5059452;28;20025;-60
2022/12/16 00:19:56;;;;;;;16.88;13.73;;;;;;;2.66;100.00;94234.19;5064577;28;20027;-60
2022/12/16 00:22:22;;;;;;;25.67;18.60;;;;;;;2.66;100.00;94241.16;5062240;28;20464;-69
2022/12/16 00:24:47;;;;;;;15.60;12.02;;;;;;;2.65;100.00;94239.50;5065982;28;20038;-70
2022/12/16 00:27:12;;;;;;;18.30;11.23;;;;;;;2.68;100.00;94244.44;5064500;28;20036;-69
2022/12/16 00:29:38;;;;;;;25.27;12.45;;;;;;;2.75;100.00;94234.34;5065515;28;20081;-69
2022/12/16 00:32:03;;;;;;;24.67;13.82;;;;;;;2.71;100.00;94246.78;5063734;28;20112;-69
2022/12/16 00:34:29;;;;;;;26.17;16.23;;;;;;;2.74;100.00;94246.50;5067700;28;20127;-69
2022/12/16 00:36:54;;;;;;;15.55;12.18;;;;;;;2.72;100.00;94238.84;5066493;28;20050;-69
2022/12/16 00:39:19;;;;;;;12.50;11.07;;;;;;;2.72;100.00;94246.66;5062537;28;20061;-69
2022/12/16 00:41:46;;;;;;;19.90;14.65;;;;;;;2.72;100.00;94244.06;5066327;28;20157;-60
2022/12/16 00:44:12;;;;;;;19.52;17.40;;;;;;;2.72;100.00;94253.63;5066511;28;20028;-69
2022/12/16 00:46:37;;;;;;;11.52;10.43;;;;;;;2.87;100.00;94243.69;5063625;28;20024;-69
2022/12/16 00:49:02;;;;;;;8.27;7.47;;;;;;;2.79;100.00;94233.97;5059756;28;20031;-69
2022/12/16 00:51:28;;;;;;;9.48;8.57;;;;;;;2.73;100.00;94255.25;5067576;28;20027;-69
2022/12/16 00:53:53;;;;;;;18.00;14.32;;;;;;;2.65;100.00;94255.94;5067200;28;20035;-69
2022/12/16 00:56:18;;;;;;;8.80;7.95;;;;;;;2.67;100.00;94271.38;5060185;28;20029;-69
2022/12/16 00:58:44;;;;;;;11.15;8.65;;;;;;;2.67;100.00;94267.00;5065519;28;20040;-69
2022/12/16 01:01:09;;;;;;;7.45;6.75;;;;;;;2.65;100.00;94265.50;5062046;28;20025;-59
2022/12/16 01:03:35;;;;;;;7.13;6.28;;;;;;;2.62;100.00;94278.75;5061910;28;20020;-69
2022/12/16 01:06:06;;;;;;;6.18;5.68;;;;;;;2.58;100.00;94283.34;5056697;28;20500;-69
2022/12/16 01:08:31;;;;;;;7.10;6.50;;;;;;;2.54;100.00;94282.81;5067579;28;20028;-69
2022/12/16 01:10:56;;;;;;;7.60;6.90;;;;;;;2.53;100.00;94293.31;5062904;28;20119;-70
2022/12/16 01:13:24;;;;;;;6.97;6.38;;;;;;;2.51;100.00;94295.22;5051920;28;20033;-69
2022/12/16 01:15:50;;;;;;;5.00;4.60;;;;;;;2.55;100.00;94294.84;5061585;28;20078;-69
2022/12/16 01:18:17;;;;;;;9.43;8.40;;;;;;;2.56;100.00;94312.09;5067229;28;20024;-69
2022/12/16 01:20:43;;;;;;;9.07;8.20;;;;;;;2.53;100.00;94319.31;5066940;28;20024;-70
2022/12/16 01:23:09;;;;;;;7.72;7.03;;;;;;;2.52;100.00;94323.66;5064859;28;20070;-58
2022/12/16 01:25:34;;;;;;;28.17;23.05;;;;;;;2.52;100.00;94328.03;5064528;28;20427;-57
2022/12/16 01:27:59;;;;;;;7.15;6.45;;;;;;;2.54;100.00;94326.97;5060744;28;20020;-58
2022/12/16 01:30:25;;;;;;;5.22;4.78;;;;;;;2.52;100.00;94333.25;5057831;28;20016;-57
2022/12/16 01:32:50;;;;;;;6.25;5.75;;;;;;;2.47;100.00;94332.81;5061244;28;20028;-57
2022/12/16 01:35:16;;;;;;;5.40;4.90;;;;;;;2.47;100.00;94336.22;5059934;28;20056;-56
2022/12/16 01:37:42;;;;;;;5.38;4.85;;;;;;;2.48;100.00;94339.66;5058660;28;20029;-57
2022/12/16 01:40:16;;;;;;;4.80;4.40;;;;;;;2.51;100.00;94345.41;5065337;28;20628;-66
2022/12/16 01:42:43;;;;;;;6.28;5.65;;;;;;;2.46;100.00;94354.53;5065193;28;20049;-59
2022/12/16 01:45:23;;;;;;;4.55;3.72;;;;;;;2.45;100.00;94358.09;5068083;28;20052;-60
2022/12/16 01:47:50;;;;;;;3.60;3.40;;;;;;;2.48;100.00;94357.84;5058341;28;20040;-59
2022/12/16 01:50:18;;;;;;;4.30;3.90;;;;;;;2.45;100.00;94356.28;5058634;28;20033;-59
2022/12/16 01:52:50;;;;;;;4.38;3.47;;;;;;;2.44;100.00;94365.03;5061330;28;20020;-59
2022/12/16 01:55:40;;;;;;;4.13;3.83;;;;;;;2.40;100.00;94368.84;5066381;28;20036;-59
2022/12/16 01:58:11;;;;;;;4.03;3.60;;;;;;;2.40;100.00;94371.44;5067828;28;20410;-60
2022/12/16 02:00:39;;;;;;;3.85;3.63;;;;;;;2.39;100.00;94367.19;5066441;28;20056;-69
2022/12/16 02:03:05;;;;;;;3.80;3.50;;;;;;;2.40;100.00;94379.22;5065442;28;21006;-58
2022/12/16 02:05:33;;;;;;;3.80;3.60;;;;;;;2.36;100.00;94375.25;5063158;28;20490;-58
2022/12/16 02:08:04;;;;;;;4.82;4.47;;;;;;;2.33;100.00;94378.09;5060793;28;20029;-57
2022/12/16 02:10:37;;;;;;;4.45;4.15;;;;;;;2.28;100.00;94384.44;5065553;28;20094;-57
2022/12/16 02:13:14;;;;;;;4.18;3.90;;;;;;;2.28;100.00;94394.03;5063315;28;20081;-59
2022/12/16 02:15:54;;;;;;;5.50;4.00;;;;;;;2.26;100.00;94393.34;5057072;28;20025;-57
2022/12/16 02:18:47;;;;;;;4.68;4.30;;;;;;;2.21;100.00;94391.09;5057041;28;20029;-57
2022/12/16 02:21:12;;;;;;;4.25;3.95;;;;;;;2.21;100.00;94398.88;5059114;28;20025;-58
2022/12/16 02:24:06;;;;;;;4.18;3.88;;;;;;;2.18;100.00;94400.91;5055468;28;20052;-58
2022/12/16 02:26:37;;;;;;;3.63;3.35;;;;;;;2.15;100.00;94409.78;5038425;28;20067;-58
2022/12/16 02:29:21;;;;;;;3.15;2.95;;;;;;;2.12;100.00;94410.84;5067016;28;20028;-58
2022/12/16 02:32:11;;;;;;;2.50;2.40;;;;;;;2.10;100.00;94410.13;5070504;28;20021;-57
2022/12/16 02:34:37;;;;;;;2.97;2.75;;;;;;;2.17;100.00;94423.47;5065801;28;20052;-58
2022/12/16 02:37:09;;;;;;;3.72;3.53;;;;;;;2.14;100.00;94414.13;5070583;28;20402;-59
2022/12/16 02:39:38;;;;;;;4.03;3.72;;;;;;;2.11;100.00;94414.38;5062573;28;20031;-59
2022/12/16 02:42:21;;;;;;;4.60;4.20;;;;;;;2.10;100.00;94417.91;5066849;28;20115;-60
2022/12/16 02:45:16;;;;;;;3.75;3.47;;;;;;;2.07;100.00;94430.31;5063139;28;20051;-60
2022/12/16 02:47:43;;;;;;;3.47;3.28;;;;;;;2.07;100.00;94422.53;5063593;28;20024;-60
2022/12/16 02:50:17;;;;;;;3.40;3.20;;;;;;;2.04;100.00;94426.19;5068655;28;20028;-59
2022/12/16 02:52:43;;;;;;;4.40;4.10;;;;;;;2.05;100.00;94422.66;5064531;28;20062;-60
2022/12/16 02:55:09;;;;;;;5.60;4.38;;;;;;;2.02;100.00;94419.47;5071911;28;20275;-64
2022/12/16 02:57:37;;;;;;;4.43;4.03;;;;;;;2.04;100.00;94420.16;5067952;28;20047;-69
2022/12/16 03:00:06;;;;;;;4.07;3.70;;;;;;;2.04;100.00;94417.56;5071692;28;20112;-69
2022/12/16 03:02:51;;;;;;;4.20;3.90;;;;;;;2.04;100.00;94415.81;5071288;28;20478;-69
2022/12/16 03:05:33;;;;;;;5.82;4.38;;;;;;;2.03;100.00;94419.34;5057097;28;20053;-70
2022/12/16 03:08:03;;;;;;;5.60;4.70;;;;;;;2.02;100.00;94414.28;5070990;28;20032;-69
2022/12/16 03:10:34;;;;;;;3.80;3.50;;;;;;;2.00;100.00;94415.22;5064738;28;20103;-69
2022/12/16 03:13:02;;;;;;;3.70;3.40;;;;;;;2.03;100.00;94421.97;5072232;28;20489;-69
2022/12/16 03:15:31;;;;;;;6.57;5.97;;;;;;;2.03;100.00;94423.72;5070201;28;20537;-60
2022/12/16 03:17:59;;;;;;;3.60;3.40;;;;;;;2.03;100.00;94413.31;5071016;28;20082;-60
2022/12/16 03:20:37;;;;;;;6.05;5.22;;;;;;;2.03;100.00;94410.72;5068219;28;20067;-59
2022/12/16 03:23:09;;;;;;;6.47;5.88;;;;;;;2.00;100.00;94417.81;5070561;28;20039;-59
2022/12/16 03:25:37;;;;;;;11.55;7.78;;;;;;;2.02;100.00;94419.47;5069345;28;20028;-59
2022/12/16 03:28:17;;;;;;;14.02;11.07;;;;;;;1.99;100.00;94416.16;5069894;28;20105;-59
2022/12/16 03:30:50;;;;;;;13.65;10.05;;;;;;;1.98;100.00;94413.69;5066157;28;20390;-60
2022/12/16 03:33:27;;;;;;;11.15;9.43;;;;;;;1.97;100.00;94417.22;5062489;28;21508;-60
2022/12/16 03:35:59;;;;;;;6.65;6.00;;;;;;;1.98;100.00;94417.13;5066856;28;20068;-58
2022/12/16 03:38:27;;;;;;;6.38;5.78;;;;;;;1.96;100.00;94413.81;5064952;28;20020;-69
2022/12/16 03:40:54;;;;;;;6.30;5.70;;;;;;;1.98;100.00;94422.31;5063562;28;20027;-70
2022/12/16 03:43:20;;;;;;;3.20;3.00;;;;;;;1.97;100.00;94415.47;5065707;28;20120;-69
2022/12/16 03:45:52;;;;;;;3.13;2.92;;;;;;;1.97;100.00;94420.66;5067072;28;20095;-70
2022/12/16 03:48:22;;;;;;;2.95;2.75;;;;;;;1.93;100.00;94419.25;5064384;28;20139;-70
2022/12/16 03:50:47;;;;;;;4.20;3.80;;;;;;;1.95;100.00;94417.38;5058202;28;20048;-70
2022/12/16 03:53:12;;;;;;;9.00;5.72;;;;;;;1.97;100.00;94415.47;5070796;28;20056;-58
2022/12/16 03:55:38;;;;;;;10.00;5.97;;;;;;;1.92;100.00;94417.59;5069488;28;20111;-64
2022/12/16 03:58:04;;;;;;;6.78;5.40;;;;;;;1.90;100.00;94416.06;5069620;28;20059;-60
2022/12/16 04:00:29;;;;;;;8.98;5.38;;;;;;;1.91;100.00;94423.75;5067183;28;20100;-60
2022/12/16 04:02:54;;;;;;;10.65;6.30;;;;;;;1.95;100.00;94422.56;5070441;28;20490;-60
2022/12/16 04:05:20;;;;;;;18.02;8.73;;;;;;;1.97;100.00;94427.59;5070197;28;20031;-60
2022/12/16 04:07:45;;;;;;;22.02;12.20;;;;;;;1.93;100.00;94424.44;5062937;28;20017;-60
2022/12/16 04:10:11;;;;;;;8.90;6.72;;;;;;;1.92;100.00;94440.13;5070375;28;20020;-60
2022/12/16 04:29:24;;;;;;;9.13;5.82;;;;;;;1.90;100.00;94455.00;5064725;28;20040;-70
2022/12/16 04:31:51;;;;;;;6.03;5.18;;;;;;;1.89;100.00;94454.19;5064856;28;20036;-69
2022/12/16 04:34:26;;;;;;;11.10;7.45;;;;;;;1.95;100.00;94460.66;5068218;28;20044;-59
